Terminal Aerodrome Forecast
Issued by NWS

Home | Current Version | Previous Version | Text Only | Print | Product List | Glossary On
Versions: 1 2 3 4 5 6 7 8 9 10 11 12 13
000
FTUS42 KTBW 192332
TAFRSW
TAF
KRSW 192332Z 2000/2024 24010KT P6SM SCT025 BKN100
      TEMPO 2001/2003 VRB15G20KT 5SM -SHRA BKN020 BKN080
     FM200400 25006KT P6SM SCT035 BKN100
     FM200900 20007KT P6SM SCT020 BKN100
     FM201600 23010KT P6SM VCSH SCT030 BKN040=

USA.gov is the U.S. government's official web portal to all federal, state and local government web resources and services.